createdAt,value
2023-04-15T00:02:03.102Z,10.49
2023-04-15T00:04:34.031Z,10.46
2023-04-15T00:07:06.813Z,10.43
2023-04-15T00:09:36.989Z,10.40
2023-04-15T00:12:07.170Z,10.39
2023-04-15T00:14:37.876Z,10.36
2023-04-15T00:17:08.476Z,10.35
2023-04-15T00:19:38.561Z,10.33
2023-04-15T00:22:13.373Z,10.29
2023-04-15T00:24:43.515Z,10.28
2023-04-15T00:27:14.048Z,10.26
2023-04-15T00:29:43.989Z,10.22
2023-04-15T00:32:13.914Z,10.16
2023-04-15T00:34:43.780Z,10.11
2023-04-15T00:37:16.448Z,10.07
2023-04-15T00:39:46.334Z,10.04
2023-04-15T00:42:16.762Z,10.00
2023-04-15T00:44:46.792Z,9.95
2023-04-15T00:47:18.143Z,9.94
2023-04-15T00:49:48.316Z,9.91
2023-04-15T00:52:21.027Z,9.89
2023-04-15T00:54:51.476Z,9.86
2023-04-15T00:57:22.455Z,9.83
2023-04-15T00:59:52.892Z,9.82
2023-04-15T01:02:23.136Z,9.77
2023-04-15T01:04:53.871Z,9.73
2023-04-15T01:07:26.651Z,9.66
2023-04-15T01:09:57.146Z,9.61
2023-04-15T01:12:29.691Z,9.52
2023-04-15T01:15:00.336Z,9.51
2023-04-15T01:17:30.703Z,9.53
2023-04-15T01:20:00.913Z,9.57
2023-04-15T01:22:36.763Z,9.58
2023-04-15T01:25:12.857Z,9.60
2023-04-15T01:27:45.648Z,9.59
2023-04-15T01:30:15.878Z,9.61
2023-04-15T01:32:46.356Z,9.61
2023-04-15T01:35:20.241Z,9.60
2023-04-15T01:37:50.587Z,9.61
2023-04-15T01:40:20.811Z,9.62
2023-04-15T01:42:53.420Z,9.63
2023-04-15T01:45:23.307Z,9.62
2023-04-15T01:47:53.654Z,9.62
2023-04-15T01:50:23.711Z,9.63
2023-04-15T01:52:53.593Z,9.62
2023-04-15T01:55:23.537Z,9.59
2023-04-15T01:57:56.482Z,9.56
2023-04-15T02:00:26.911Z,9.53
2023-04-15T02:02:56.950Z,9.52
2023-04-15T02:05:26.868Z,9.49
2023-04-15T02:07:57.886Z,9.47
2023-04-15T02:10:27.885Z,9.42
2023-04-15T02:13:00.433Z,9.39
2023-04-15T02:15:30.777Z,9.37
2023-04-15T02:18:02.164Z,9.36
2023-04-15T02:20:33.324Z,9.33
2023-04-15T02:23:03.372Z,9.32
2023-04-15T02:25:33.490Z,9.30
2023-04-15T02:28:06.704Z,9.28
2023-04-15T02:30:36.770Z,9.25
2023-04-15T02:33:07.657Z,9.23
2023-04-15T02:35:39.518Z,9.21
2023-04-15T02:38:09.315Z,9.20
2023-04-15T02:40:39.422Z,9.20
2023-04-15T02:43:13.717Z,9.19
2023-04-15T02:45:43.853Z,9.17
2023-04-15T02:48:13.842Z,9.15
2023-04-15T02:50:47.022Z,9.12
2023-04-15T02:53:17.746Z,9.07
2023-04-15T02:55:47.732Z,9.04
2023-04-15T02:58:22.285Z,8.99
2023-04-15T03:00:52.309Z,8.96
2023-04-15T03:03:22.300Z,8.92
2023-04-15T03:05:52.261Z,8.88
2023-04-15T03:08:22.200Z,8.83
2023-04-15T03:10:52.910Z,8.82
2023-04-15T03:13:25.685Z,8.73
2023-04-15T03:15:58.545Z,8.66
2023-04-15T03:18:29.525Z,8.60
2023-04-15T03:20:59.693Z,8.58
2023-04-15T03:23:29.769Z,8.60
2023-04-15T03:26:00.149Z,8.61
2023-04-15T03:28:33.044Z,8.62
2023-04-15T03:31:03.212Z,8.62
2023-04-15T03:33:33.349Z,8.62
2023-04-15T03:36:03.265Z,8.59
2023-04-15T03:38:33.453Z,8.55
2023-04-15T03:41:03.327Z,8.53
2023-04-15T03:43:35.812Z,8.51
2023-04-15T03:46:07.241Z,8.51
2023-04-15T03:48:37.217Z,8.50
2023-04-15T03:51:07.372Z,8.51
2023-04-15T03:53:39.965Z,8.48
2023-04-15T03:56:10.345Z,8.46
2023-04-15T03:58:42.717Z,8.37
2023-04-15T04:01:12.556Z,8.31
2023-04-15T04:03:42.640Z,8.30
2023-04-15T04:06:12.852Z,8.29
2023-04-15T04:08:42.758Z,8.26
2023-04-15T04:11:12.586Z,8.28
2023-04-15T04:13:45.030Z,8.28
2023-04-15T04:16:15.204Z,8.24
2023-04-15T04:18:45.386Z,8.21
2023-04-15T04:21:15.333Z,8.17
2023-04-15T04:23:45.760Z,8.18
2023-04-15T04:26:15.652Z,8.14
2023-04-15T04:28:53.077Z,8.10
2023-04-15T04:31:28.305Z,8.09
2023-04-15T04:33:58.365Z,8.10
2023-04-15T04:36:28.419Z,8.12
2023-04-15T04:38:58.401Z,8.14
2023-04-15T04:41:28.704Z,8.16
2023-04-15T04:44:01.444Z,8.13
2023-04-15T04:46:31.469Z,8.12
2023-04-15T04:49:03.218Z,8.11
2023-04-15T04:51:33.902Z,8.09
2023-04-15T04:54:16.136Z,8.07
2023-04-15T04:56:46.601Z,8.09
2023-04-15T04:59:19.596Z,8.10
2023-04-15T05:01:49.579Z,8.10
2023-04-15T05:04:19.508Z,8.11
2023-04-15T05:06:49.413Z,8.11
2023-04-15T05:09:23.705Z,8.09
2023-04-15T05:11:53.600Z,8.11
2023-04-15T05:14:26.277Z,8.15
2023-04-15T05:16:56.196Z,8.17
2023-04-15T05:19:26.327Z,8.16
2023-04-15T05:21:56.246Z,8.15
2023-04-15T05:24:26.322Z,8.15
2023-04-15T05:26:56.517Z,8.17
2023-04-15T05:29:29.023Z,8.16
2023-04-15T05:31:59.417Z,8.10
2023-04-15T05:34:29.488Z,8.09
2023-04-15T05:36:59.322Z,8.09
2023-04-15T05:39:29.872Z,8.11
2023-04-15T05:42:00.080Z,8.12
2023-04-15T05:44:32.561Z,8.12
2023-04-15T05:47:03.741Z,8.12
2023-04-15T05:49:33.828Z,8.11
2023-04-15T05:52:03.821Z,8.11
2023-04-15T05:54:33.967Z,8.11
2023-04-15T05:57:04.214Z,8.09
2023-04-15T05:59:37.223Z,8.12
2023-04-15T06:02:07.781Z,8.16
2023-04-15T06:04:38.010Z,8.22
2023-04-15T06:07:08.153Z,8.26
2023-04-15T06:09:38.101Z,8.34
2023-04-15T06:12:12.413Z,8.41
2023-04-15T06:14:44.942Z,8.49
2023-04-15T06:17:15.603Z,8.58
2023-04-15T06:19:45.438Z,8.67
2023-04-15T06:22:15.499Z,8.75
2023-04-15T06:24:45.703Z,8.84
2023-04-15T06:27:15.892Z,8.99
2023-04-15T06:29:48.404Z,9.15
2023-04-15T06:32:18.192Z,9.29
2023-04-15T06:34:48.080Z,9.46
2023-04-15T06:37:18.682Z,9.63
2023-04-15T06:39:48.594Z,9.83
2023-04-15T06:42:18.635Z,9.89
2023-04-15T06:44:51.454Z,10.06
2023-04-15T06:47:21.303Z,10.28
2023-04-15T06:49:51.210Z,10.47
2023-04-15T06:52:21.373Z,10.71
2023-04-15T06:54:51.425Z,10.92
2023-04-15T06:57:21.478Z,11.15
2023-04-15T06:59:54.804Z,11.35
2023-04-15T07:02:25.217Z,11.49
2023-04-15T07:04:55.794Z,11.63
2023-04-15T07:07:25.835Z,11.78
2023-04-15T07:09:55.731Z,11.82
2023-04-15T07:12:26.077Z,11.81
2023-04-15T07:14:58.537Z,11.85
2023-04-15T07:17:28.452Z,11.82
2023-04-15T07:19:58.450Z,11.85
2023-04-15T07:22:28.495Z,12.00
2023-04-15T07:24:58.406Z,12.18
2023-04-15T07:27:28.840Z,12.31
2023-04-15T07:30:01.297Z,12.53
2023-04-15T07:32:31.330Z,12.66
2023-04-15T07:35:02.406Z,12.85
2023-04-15T07:37:32.453Z,12.99
2023-04-15T07:40:02.300Z,13.13
2023-04-15T07:42:32.290Z,13.21
2023-04-15T07:45:04.942Z,13.22
2023-04-15T07:47:34.862Z,13.05
2023-04-15T07:50:05.208Z,13.01
2023-04-15T07:52:39.377Z,13.01
2023-04-15T07:55:11.221Z,12.97
2023-04-15T07:57:41.260Z,12.95
2023-04-15T08:00:15.345Z,12.95
2023-04-15T08:02:47.130Z,12.98
2023-04-15T08:05:17.584Z,12.94
2023-04-15T08:07:48.165Z,12.85
2023-04-15T08:10:18.061Z,12.94
2023-04-15T08:12:49.352Z,12.95
2023-04-15T08:15:23.818Z,13.05
2023-04-15T08:17:56.355Z,13.17
2023-04-15T08:20:26.360Z,13.32
2023-04-15T08:22:56.248Z,13.44
2023-04-15T08:25:26.102Z,13.52
2023-04-15T08:27:58.283Z,13.49
2023-04-15T08:30:31.351Z,13.50
2023-04-15T08:33:01.259Z,13.53
2023-04-15T08:35:31.848Z,13.61
2023-04-15T08:38:01.689Z,13.68
2023-04-15T08:40:39.121Z,13.74
2023-04-15T08:43:12.217Z,13.66
2023-04-15T08:45:46.544Z,13.57
2023-04-15T08:48:19.583Z,13.54
2023-04-15T08:50:50.752Z,13.55
2023-04-15T08:53:21.881Z,13.63
2023-04-15T08:55:56.277Z,13.75
2023-04-15T08:58:27.534Z,13.96
2023-04-15T09:01:00.693Z,14.17
2023-04-15T09:03:31.979Z,14.33
2023-04-15T09:06:02.736Z,14.55
2023-04-15T09:08:32.569Z,14.81
2023-04-15T09:11:02.687Z,14.83
2023-04-15T09:13:32.781Z,14.90
2023-04-15T09:16:05.572Z,14.66
2023-04-15T09:18:40.429Z,14.56
2023-04-15T09:21:11.809Z,14.57
2023-04-15T09:23:43.938Z,14.69
2023-04-15T09:26:13.960Z,14.74
2023-04-15T09:28:46.925Z,14.91
2023-04-15T09:31:19.458Z,15.02
2023-04-15T09:33:59.562Z,14.88
2023-04-15T09:36:30.154Z,14.90
2023-04-15T09:39:01.291Z,14.77
2023-04-15T09:41:31.497Z,14.69
2023-04-15T09:44:01.856Z,14.72
2023-04-15T09:46:48.084Z,14.59
2023-04-15T09:49:18.209Z,14.57
2023-04-15T09:52:01.331Z,14.65
2023-04-15T09:54:38.941Z,14.83
2023-04-15T09:57:10.525Z,14.85
2023-04-15T09:59:42.558Z,14.85
2023-04-15T10:02:16.783Z,14.84
2023-04-15T10:04:48.812Z,14.91
2023-04-15T10:07:23.242Z,14.87
2023-04-15T10:09:53.554Z,14.69
2023-04-15T10:12:25.092Z,14.57
2023-04-15T10:14:59.639Z,14.49
2023-04-15T10:17:35.733Z,14.52
2023-04-15T10:20:07.313Z,14.57
2023-04-15T10:22:39.534Z,14.65
2023-04-15T10:25:10.764Z,14.75
2023-04-15T10:27:42.603Z,14.74
2023-04-15T10:30:13.797Z,14.69
2023-04-15T10:32:47.681Z,14.60
2023-04-15T10:35:18.905Z,14.51
2023-04-15T10:37:48.876Z,14.48
2023-04-15T10:40:31.980Z,14.40
2023-04-15T10:43:03.279Z,14.43
2023-04-15T10:45:36.929Z,14.43
2023-04-15T10:48:11.740Z,14.32
2023-04-15T10:50:41.593Z,14.33
2023-04-15T10:53:13.844Z,14.29
2023-04-15T10:55:43.840Z,14.28
2023-04-15T10:58:15.267Z,14.36
2023-04-15T11:00:55.267Z,14.40
2023-04-15T11:03:43.349Z,14.38
2023-04-15T11:06:13.429Z,14.36
2023-04-15T11:09:02.957Z,14.17
2023-04-15T11:12:02.827Z,14.09
2023-04-15T11:14:32.763Z,14.05
2023-04-15T11:17:02.758Z,14.18
2023-04-15T11:19:41.997Z,14.27
2023-04-15T11:22:12.742Z,14.29
2023-04-15T11:24:50.814Z,14.29
2023-04-15T11:27:24.903Z,14.45
2023-04-15T11:29:55.045Z,14.57
2023-04-15T11:32:25.111Z,14.54
2023-04-15T11:34:58.602Z,14.55
2023-04-15T11:37:32.490Z,14.59
2023-04-15T11:40:02.328Z,14.60
2023-04-15T11:42:46.478Z,14.72
2023-04-15T11:45:19.402Z,14.73
2023-04-15T11:47:49.351Z,14.76
2023-04-15T11:50:23.981Z,14.78
2023-04-15T11:52:57.373Z,14.81
2023-04-15T11:55:27.619Z,14.72
2023-04-15T11:58:13.602Z,14.73
2023-04-15T12:00:49.544Z,14.83
2023-04-15T12:03:26.167Z,14.85
2023-04-15T12:06:14.367Z,14.57
2023-04-15T12:09:03.097Z,14.59
2023-04-15T12:11:38.979Z,14.66
2023-04-15T12:14:11.523Z,14.68
2023-04-15T12:16:48.806Z,14.60
2023-04-15T12:19:22.399Z,14.49
2023-04-15T12:22:00.802Z,14.50
2023-04-15T12:24:33.942Z,14.50
2023-04-15T12:27:06.472Z,14.55
2023-04-15T12:29:37.557Z,14.55
2023-04-15T12:32:09.635Z,14.61
2023-04-15T12:34:41.126Z,14.50
2023-04-15T12:37:16.318Z,14.54
2023-04-15T12:39:49.004Z,14.58
2023-04-15T12:42:19.970Z,14.54
2023-04-15T12:44:50.023Z,14.53
2023-04-15T12:47:20.054Z,14.47
2023-04-15T12:49:49.919Z,14.44
2023-04-15T12:52:22.378Z,14.47
2023-04-15T12:54:52.188Z,14.56
2023-04-15T12:57:21.995Z,14.50
2023-04-15T12:59:52.004Z,14.53
2023-04-15T13:02:25.825Z,14.55
2023-04-15T13:04:56.012Z,14.58
2023-04-15T13:07:28.586Z,14.58
2023-04-15T13:09:58.687Z,14.42
2023-04-15T13:12:28.591Z,14.37
2023-04-15T13:14:58.409Z,14.33
2023-04-15T13:17:28.319Z,14.36
2023-04-15T13:19:58.415Z,14.34
2023-04-15T13:22:30.891Z,14.35
2023-04-15T13:25:00.705Z,14.35
2023-04-15T13:27:30.590Z,14.41
2023-04-15T13:30:00.562Z,14.38
2023-04-15T13:32:30.545Z,14.24
2023-04-15T13:35:00.697Z,14.12
2023-04-15T13:37:33.863Z,14.16
2023-04-15T13:40:03.952Z,14.21
2023-04-15T13:42:33.924Z,14.29
2023-04-15T13:45:03.740Z,14.32
2023-04-15T13:47:33.789Z,14.36
2023-04-15T13:50:03.700Z,14.28
2023-04-15T13:52:36.420Z,14.22
2023-04-15T13:55:19.517Z,14.19
2023-04-15T13:57:54.238Z,14.08
2023-04-15T14:00:24.329Z,14.03
2023-04-15T14:02:54.327Z,14.05
2023-04-15T14:05:24.330Z,14.06
2023-04-15T14:07:57.161Z,14.03
2023-04-15T14:10:27.082Z,14.10
2023-04-15T14:12:57.002Z,14.04
2023-04-15T14:15:27.194Z,14.01
2023-04-15T14:17:57.120Z,13.96
2023-04-15T14:20:27.035Z,13.83
2023-04-15T14:22:59.484Z,13.77
2023-04-15T14:25:33.777Z,13.63
2023-04-15T14:28:04.404Z,13.62
2023-04-15T14:30:34.629Z,13.71
2023-04-15T14:33:04.921Z,13.77
2023-04-15T14:35:34.897Z,13.81
2023-04-15T14:38:11.626Z,13.78
2023-04-15T14:40:41.985Z,13.67
2023-04-15T14:43:13.346Z,13.56
2023-04-15T14:45:44.646Z,13.45
2023-04-15T14:48:15.910Z,13.45
2023-04-15T14:50:46.401Z,13.29
2023-04-15T14:53:19.168Z,13.20
2023-04-15T14:55:49.139Z,13.26
2023-04-15T14:58:19.127Z,13.24
2023-04-15T15:00:49.168Z,13.28
2023-04-15T15:03:19.728Z,13.23
2023-04-15T15:05:50.625Z,13.17
2023-04-15T15:08:23.312Z,13.17
2023-04-15T15:10:53.456Z,13.19
2023-04-15T15:13:23.694Z,13.24
2023-04-15T15:15:53.596Z,13.23
2023-04-15T15:18:25.788Z,13.24
2023-04-15T15:20:55.766Z,13.18
2023-04-15T15:23:28.656Z,13.16
2023-04-15T15:25:58.642Z,13.16
2023-04-15T15:28:28.593Z,13.12
2023-04-15T15:30:58.502Z,13.07
2023-04-15T15:33:30.083Z,13.04
2023-04-15T15:36:01.019Z,13.06
2023-04-15T15:38:33.852Z,13.04
2023-04-15T15:41:03.700Z,13.01
2023-04-15T15:43:33.620Z,12.95
2023-04-15T15:46:08.000Z,12.93
2023-04-15T15:48:38.423Z,12.87
2023-04-15T15:51:08.386Z,12.79
2023-04-15T15:53:40.996Z,12.77
2023-04-15T15:56:11.054Z,12.69
2023-04-15T15:58:40.947Z,12.65
2023-04-15T16:01:11.069Z,12.59
2023-04-15T16:03:41.284Z,12.54
2023-04-15T16:06:11.824Z,12.42
2023-04-15T16:08:44.363Z,12.39
2023-04-15T16:11:14.280Z,12.37
2023-04-15T16:13:44.261Z,12.40
2023-04-15T16:16:14.389Z,12.38
2023-04-15T16:18:44.315Z,12.43
2023-04-15T16:21:14.284Z,12.48
2023-04-15T16:23:46.871Z,12.47
2023-04-15T16:26:16.880Z,12.46
2023-04-15T16:28:47.017Z,12.46
2023-04-15T16:31:17.356Z,12.39
2023-04-15T16:33:47.363Z,12.31
2023-04-15T16:36:17.556Z,12.30
2023-04-15T16:38:50.037Z,12.26
2023-04-15T16:41:20.602Z,12.28
2023-04-15T16:43:50.755Z,12.26
2023-04-15T16:46:20.681Z,12.28
2023-04-15T16:48:50.593Z,12.27
2023-04-15T16:51:20.565Z,12.28
2023-04-15T16:53:53.048Z,12.30
2023-04-15T16:56:23.837Z,12.30
2023-04-15T16:58:53.808Z,12.30
2023-04-15T17:01:24.593Z,12.27
2023-04-15T17:03:56.171Z,12.22
2023-04-15T17:06:26.974Z,12.18
2023-04-15T17:08:59.461Z,12.13
2023-04-15T17:11:31.503Z,12.03
2023-04-15T17:14:01.481Z,11.98
2023-04-15T17:16:31.482Z,11.94
2023-04-15T17:19:01.567Z,11.93
2023-04-15T17:21:32.905Z,11.91
2023-04-15T17:24:05.492Z,11.93
2023-04-15T17:26:35.417Z,11.88
2023-04-15T17:29:05.560Z,11.82
2023-04-15T17:31:36.095Z,11.79
2023-04-15T17:34:07.035Z,11.79
2023-04-15T17:36:39.208Z,11.77
2023-04-15T17:39:12.203Z,11.67
2023-04-15T17:41:42.047Z,11.54
2023-04-15T17:44:12.302Z,11.55
2023-04-15T17:46:42.641Z,11.42
2023-04-15T17:49:12.554Z,11.38
2023-04-15T17:51:42.543Z,11.43
2023-04-15T17:54:15.209Z,11.40
2023-04-15T17:56:45.390Z,11.43
2023-04-15T17:59:17.373Z,11.45
2023-04-15T18:01:47.551Z,11.34
2023-04-15T18:04:17.928Z,11.34
2023-04-15T18:06:48.318Z,11.19
2023-04-15T18:09:21.366Z,11.16
2023-04-15T18:11:51.652Z,11.10
2023-04-15T18:14:33.715Z,11.03
2023-04-15T18:17:04.969Z,11.06
2023-04-15T18:19:35.442Z,10.98
2023-04-15T18:22:05.636Z,10.95
2023-04-15T18:24:38.514Z,10.96
2023-04-15T18:27:08.479Z,11.02
2023-04-15T18:29:39.187Z,11.03
2023-04-15T18:32:09.177Z,10.93
2023-04-15T18:34:39.374Z,10.87
2023-04-15T18:37:09.407Z,10.88
2023-04-15T18:39:45.168Z,10.85
2023-04-15T18:42:15.054Z,10.89
2023-04-15T18:44:44.973Z,10.92
2023-04-15T18:47:15.146Z,10.90
2023-04-15T18:49:45.110Z,10.85
2023-04-15T18:52:15.076Z,10.77
2023-04-15T18:54:47.900Z,10.71
2023-04-15T18:57:23.604Z,10.65
2023-04-15T19:00:01.724Z,10.71
2023-04-15T19:02:31.818Z,10.75
2023-04-15T19:05:04.333Z,10.77
2023-04-15T19:07:35.021Z,10.77
2023-04-15T19:10:09.495Z,10.73
2023-04-15T19:12:40.692Z,10.79
2023-04-15T19:15:11.693Z,10.78
2023-04-15T19:17:41.631Z,10.78
2023-04-15T19:20:12.587Z,10.76
2023-04-15T19:22:43.367Z,10.74
2023-04-15T19:25:16.910Z,10.70
2023-04-15T19:27:46.899Z,10.69
2023-04-15T19:30:17.241Z,10.71
2023-04-15T19:32:47.306Z,10.66
2023-04-15T19:35:17.680Z,10.60
2023-04-15T19:37:47.672Z,10.57
2023-04-15T19:40:20.570Z,10.52
2023-04-15T19:42:50.677Z,10.50
2023-04-15T19:45:20.891Z,10.51
2023-04-15T19:47:52.013Z,10.54
2023-04-15T19:50:26.136Z,10.61
2023-04-15T19:52:56.179Z,10.56
2023-04-15T19:55:28.744Z,10.48
2023-04-15T19:57:58.791Z,10.51
2023-04-15T20:00:28.869Z,10.50
2023-04-15T20:02:59.754Z,10.51
2023-04-15T20:05:29.789Z,10.47
2023-04-15T20:08:00.052Z,10.53
2023-04-15T20:10:34.070Z,10.51
2023-04-15T20:13:04.124Z,10.53
2023-04-15T20:15:34.305Z,10.51
2023-04-15T20:18:04.297Z,10.48
2023-04-15T20:20:34.223Z,10.47
2023-04-15T20:23:04.249Z,10.34
2023-04-15T20:25:36.977Z,10.44
2023-04-15T20:28:07.032Z,10.53
2023-04-15T20:30:37.658Z,10.53
2023-04-15T20:33:08.354Z,10.51
2023-04-15T20:35:38.288Z,10.52
2023-04-15T20:38:08.231Z,10.51
2023-04-15T20:40:41.860Z,10.43
2023-04-15T20:43:11.990Z,10.47
2023-04-15T20:45:42.270Z,10.50
2023-04-15T20:48:12.234Z,10.38
2023-04-15T20:50:42.354Z,10.36
2023-04-15T20:53:12.266Z,10.34
2023-04-15T20:55:45.377Z,10.32
2023-04-15T20:58:15.507Z,10.31
2023-04-15T21:00:45.615Z,10.33
2023-04-15T21:03:15.688Z,10.32
2023-04-15T21:05:45.978Z,10.27
2023-04-15T21:08:15.931Z,10.26
2023-04-15T21:10:48.506Z,10.24
2023-04-15T21:13:18.671Z,10.26
2023-04-15T21:15:53.647Z,10.26
2023-04-15T21:18:24.343Z,10.23
2023-04-15T21:20:59.599Z,10.13
2023-04-15T21:23:30.116Z,10.13
2023-04-15T21:26:02.665Z,10.16
2023-04-15T21:28:32.788Z,10.17
2023-04-15T21:31:03.067Z,10.20
2023-04-15T21:33:33.326Z,10.20
2023-04-15T21:36:03.404Z,10.25
2023-04-15T21:38:33.415Z,10.30
2023-04-15T21:41:09.809Z,10.32
2023-04-15T21:43:40.076Z,10.34
2023-04-15T21:46:22.223Z,10.31
2023-04-15T21:48:55.633Z,10.28
2023-04-15T21:51:26.097Z,10.26
2023-04-15T21:53:56.209Z,10.27
2023-04-15T21:56:29.274Z,10.18
2023-04-15T21:59:02.497Z,10.21
2023-04-15T22:01:32.607Z,10.28
2023-04-15T22:04:02.859Z,10.29
2023-04-15T22:06:32.867Z,10.31
2023-04-15T22:09:02.821Z,10.34
2023-04-15T22:11:35.403Z,10.36
2023-04-15T22:14:05.634Z,10.35
2023-04-15T22:16:35.874Z,10.32
2023-04-15T22:19:05.916Z,10.31
2023-04-15T22:21:36.315Z,10.30
2023-04-15T22:24:31.742Z,10.28
2023-04-15T22:26:59.643Z,10.28
2023-04-15T22:29:30.159Z,10.29
2023-04-15T22:32:03.114Z,10.26
2023-04-15T22:34:33.244Z,10.23
2023-04-15T22:37:03.106Z,10.22
2023-04-15T22:39:32.990Z,10.19
2023-04-15T22:42:05.616Z,10.23
2023-04-15T22:44:35.561Z,10.23
2023-04-15T22:47:05.406Z,10.19
2023-04-15T22:49:36.425Z,10.16
2023-04-15T22:52:07.031Z,10.19
2023-04-15T22:54:37.918Z,10.18
2023-04-15T22:57:10.508Z,10.12
2023-04-15T22:59:41.030Z,10.13
2023-04-15T23:02:11.020Z,10.13
2023-04-15T23:04:41.114Z,10.12
2023-04-15T23:07:11.407Z,10.13
2023-04-15T23:09:41.984Z,10.16
2023-04-15T23:12:14.780Z,10.18
2023-04-15T23:14:45.006Z,10.23
2023-04-15T23:17:14.884Z,10.27
2023-04-15T23:19:44.817Z,10.30
2023-04-15T23:22:14.735Z,10.34
2023-04-15T23:24:44.663Z,10.33
2023-04-15T23:27:23.604Z,10.33
2023-04-15T23:29:53.377Z,10.33
2023-04-15T23:32:23.273Z,10.38
2023-04-15T23:34:53.278Z,10.35
2023-04-15T23:37:23.117Z,10.36
2023-04-15T23:39:55.858Z,10.44
2023-04-15T23:42:28.649Z,10.46
2023-04-15T23:44:58.522Z,10.51
2023-04-15T23:47:28.476Z,10.52
2023-04-15T23:49:58.413Z,10.49
2023-04-15T23:52:31.043Z,10.42
2023-04-15T23:55:01.400Z,10.40
2023-04-15T23:57:34.306Z,10.43
